sensor_id;sensor_type;location;lat;lon;timestamp;pressure;altitude;pressure_sealevel;temperature;humidity
62011;BME280;47967;51.756;10.174;2022-11-20T05:04:26;99332.38;;;-4.99;78.81
62011;BME280;47967;51.756;10.174;2022-11-20T05:08:29;99328.94;;;-5.12;79.11
62011;BME280;47967;51.756;10.174;2022-11-20T05:12:32;99325.81;;;-5.17;79.29
62011;BME280;47967;51.756;10.174;2022-11-20T05:16:35;99325.19;;;-5.21;79.56
62011;BME280;47967;51.756;10.174;2022-11-20T05:20:39;99325.50;;;-5.12;79.59
62011;BME280;47967;51.756;10.174;2022-11-20T05:24:41;99323.19;;;-5.17;79.28
62011;BME280;47967;51.756;10.174;2022-11-20T05:28:45;99325.31;;;-5.22;79.16
62011;BME280;47967;51.756;10.174;2022-11-20T05:32:48;99326.69;;;-5.29;78.59
62011;BME280;47967;51.756;10.174;2022-11-20T05:36:52;99316.19;;;-5.42;78.28
62011;BME280;47967;51.756;10.174;2022-11-20T05:40:54;99326.66;;;-5.54;78.24
62011;BME280;47967;51.756;10.174;2022-11-20T05:44:58;99318.13;;;-5.57;78.00
62011;BME280;47967;51.756;10.174;2022-11-20T05:49:00;99316.78;;;-5.63;78.49
62011;BME280;47967;51.756;10.174;2022-11-20T05:53:04;99318.66;;;-5.65;78.95
62011;BME280;47967;51.756;10.174;2022-11-20T05:57:07;99316.78;;;-5.63;79.37
62011;BME280;47967;51.756;10.174;2022-11-20T06:01:12;99317.63;;;-5.63;79.36
62011;BME280;47967;51.756;10.174;2022-11-20T06:05:15;99324.03;;;-5.54;79.44
62011;BME280;47967;51.756;10.174;2022-11-20T06:09:19;99329.91;;;-5.50;79.46
62011;BME280;47967;51.756;10.174;2022-11-20T06:13:22;99323.78;;;-5.51;79.42
62011;BME280;47967;51.756;10.174;2022-11-20T06:17:24;99323.59;;;-5.60;78.97
62011;BME280;47967;51.756;10.174;2022-11-20T06:21:27;99336.44;;;-5.69;78.65
62011;BME280;47967;51.756;10.174;2022-11-20T06:25:31;99334.22;;;-5.75;78.85
62011;BME280;47967;51.756;10.174;2022-11-20T06:29:34;99329.59;;;-5.71;79.41
62011;BME280;47967;51.756;10.174;2022-11-20T06:33:37;99323.59;;;-5.48;79.33
62011;BME280;47967;51.756;10.174;2022-11-20T06:37:39;99314.69;;;-5.21;79.31
62011;BME280;47967;51.756;10.174;2022-11-20T06:41:43;99316.75;;;-5.13;78.97
62011;BME280;47967;51.756;10.174;2022-11-20T06:45:46;99323.97;;;-5.04;78.96
62011;BME280;47967;51.756;10.174;2022-11-20T06:49:48;99319.41;;;-5.02;78.98
62011;BME280;47967;51.756;10.174;2022-11-20T06:53:51;99311.03;;;-5.07;78.90
62011;BME280;47967;51.756;10.174;2022-11-20T06:57:55;99317.53;;;-5.00;79.15
62011;BME280;47967;51.756;10.174;2022-11-20T07:01:58;99303.63;;;-5.02;79.16
62011;BME280;47967;51.756;10.174;2022-11-20T07:06:01;99312.84;;;-5.07;78.88
62011;BME280;47967;51.756;10.174;2022-11-20T07:10:05;99306.63;;;-5.06;78.75
62011;BME280;47967;51.756;10.174;2022-11-20T07:14:09;99300.63;;;-5.08;78.52
62011;BME280;47967;51.756;10.174;2022-11-20T07:18:11;99299.84;;;-5.22;78.46
62011;BME280;47967;51.756;10.174;2022-11-20T07:22:14;99300.78;;;-5.23;78.34
62011;BME280;47967;51.756;10.174;2022-11-20T07:26:17;99304.31;;;-5.35;78.43
62011;BME280;47967;51.756;10.174;2022-11-20T07:30:22;99303.69;;;-5.39;78.42
62011;BME280;47967;51.756;10.174;2022-11-20T07:34:24;99310.25;;;-5.20;78.48
62011;BME280;47967;51.756;10.174;2022-11-20T07:38:27;99304.81;;;-5.06;78.34
62011;BME280;47967;51.756;10.174;2022-11-20T07:42:30;99305.06;;;-5.09;77.83
62011;BME280;47967;51.756;10.174;2022-11-20T07:46:37;99309.03;;;-5.03;77.58
62011;BME280;47967;51.756;10.174;2022-11-20T07:50:39;99306.06;;;-4.99;77.80
62011;BME280;47967;51.756;10.174;2022-11-20T07:54:42;99314.25;;;-4.90;77.68
62011;BME280;47967;51.756;10.174;2022-11-20T07:58:45;99318.44;;;-4.88;77.56
62011;BME280;47967;51.756;10.174;2022-11-20T08:02:49;99317.56;;;-4.64;77.67
62011;BME280;47967;51.756;10.174;2022-11-20T08:06:52;99326.03;;;-4.36;77.40
62011;BME280;47967;51.756;10.174;2022-11-20T08:10:56;99322.25;;;-4.21;77.24
62011;BME280;47967;51.756;10.174;2022-11-20T08:15:18;99328.28;;;-3.96;76.96
62011;BME280;47967;51.756;10.174;2022-11-20T08:19:22;99341.44;;;-3.96;76.60
62011;BME280;47967;51.756;10.174;2022-11-20T08:23:25;99336.56;;;-3.78;76.60
62011;BME280;47967;51.756;10.174;2022-11-20T08:27:28;99330.69;;;-3.70;76.09
62011;BME280;47967;51.756;10.174;2022-11-20T08:31:31;99328.53;;;-3.65;76.19
62011;BME280;47967;51.756;10.174;2022-11-20T08:35:35;99337.88;;;-3.61;76.04
62011;BME280;47967;51.756;10.174;2022-11-20T08:39:39;99333.19;;;-3.46;75.95
62011;BME280;47967;51.756;10.174;2022-11-20T08:43:41;99330.78;;;-3.38;75.53
62011;BME280;47967;51.756;10.174;2022-11-20T08:47:44;99340.63;;;-3.28;75.32
62011;BME280;47967;51.756;10.174;2022-11-20T08:51:48;99332.19;;;-3.11;75.25
62011;BME280;47967;51.756;10.174;2022-11-20T08:55:53;99335.28;;;-3.06;74.83
62011;BME280;47967;51.756;10.174;2022-11-20T08:59:56;99349.53;;;-2.85;74.74
62011;BME280;47967;51.756;10.174;2022-11-20T09:04:07;99348.53;;;-2.73;74.13
62011;BME280;47967;51.756;10.174;2022-11-20T09:08:11;99347.91;;;-2.65;73.79
62011;BME280;47967;51.756;10.174;2022-11-20T09:12:14;99340.66;;;-2.52;73.85
62011;BME280;47967;51.756;10.174;2022-11-20T09:16:20;99340.00;;;-2.44;74.18
62011;BME280;47967;51.756;10.174;2022-11-20T09:20:24;99323.84;;;-2.30;73.70
62011;BME280;47967;51.756;10.174;2022-11-20T09:24:29;99324.97;;;-2.11;73.60
62011;BME280;47967;51.756;10.174;2022-11-20T09:28:35;99332.34;;;-1.84;73.11
62011;BME280;47967;51.756;10.174;2022-11-20T09:32:38;99326.28;;;-1.74;71.97
62011;BME280;47967;51.756;10.174;2022-11-20T09:36:41;99320.50;;;-1.58;71.90
62011;BME280;47967;51.756;10.174;2022-11-20T09:40:50;99314.94;;;-1.46;72.07
62011;BME280;47967;51.756;10.174;2022-11-20T09:45:08;99308.72;;;-1.35;71.23
62011;BME280;47967;51.756;10.174;2022-11-20T09:49:23;99301.53;;;-1.13;71.09
62011;BME280;47967;51.756;10.174;2022-11-20T09:53:41;99294.03;;;-0.98;71.20
62011;BME280;47967;51.756;10.174;2022-11-20T09:57:48;99296.28;;;-0.84;70.60
62011;BME280;47967;51.756;10.174;2022-11-20T10:01:55;99283.75;;;-0.72;70.68
62011;BME280;47967;51.756;10.174;2022-11-20T10:06:00;99286.81;;;-0.67;70.04
62011;BME280;47967;51.756;10.174;2022-11-20T10:10:14;99277.88;;;-0.56;69.83
62011;BME280;47967;51.756;10.174;2022-11-20T10:14:27;99286.66;;;-0.45;69.99
62011;BME280;47967;51.756;10.174;2022-11-20T10:18:40;99277.16;;;-0.48;69.90
62011;BME280;47967;51.756;10.174;2022-11-20T10:22:55;99272.13;;;-0.31;69.89
62011;BME280;47967;51.756;10.174;2022-11-20T10:27:09;99279.38;;;-0.24;69.98
62011;BME280;47967;51.756;10.174;2022-11-20T10:31:27;99274.59;;;-0.10;69.66
62011;BME280;47967;51.756;10.174;2022-11-20T10:35:35;99276.28;;;-0.09;68.96
62011;BME280;47967;51.756;10.174;2022-11-20T10:39:49;99269.81;;;0.03;68.93
62011;BME280;47967;51.756;10.174;2022-11-20T10:44:00;99268.50;;;0.17;68.82
62011;BME280;47967;51.756;10.174;2022-11-20T10:48:15;99265.81;;;0.27;68.64
62011;BME280;47967;51.756;10.174;2022-11-20T10:52:23;99271.81;;;0.29;67.80
62011;BME280;47967;51.756;10.174;2022-11-20T10:56:34;99265.97;;;0.53;67.40
62011;BME280;47967;51.756;10.174;2022-11-20T11:00:38;99262.78;;;0.50;67.07
62011;BME280;47967;51.756;10.174;2022-11-20T11:04:44;99258.81;;;0.63;66.85
62011;BME280;47967;51.756;10.174;2022-11-20T11:08:48;99257.28;;;0.79;65.97
62011;BME280;47967;51.756;10.174;2022-11-20T11:12:52;99249.56;;;1.04;65.04
62011;BME280;47967;51.756;10.174;2022-11-20T11:16:56;99247.44;;;1.25;64.14
62011;BME280;47967;51.756;10.174;2022-11-20T11:21:02;99233.88;;;1.28;64.07
62011;BME280;47967;51.756;10.174;2022-11-20T11:25:18;99223.84;;;1.22;65.22
62011;BME280;47967;51.756;10.174;2022-11-20T11:29:21;99201.47;;;1.07;64.97
62011;BME280;47967;51.756;10.174;2022-11-20T11:33:26;99196.00;;;0.90;66.35
62011;BME280;47967;51.756;10.174;2022-11-20T11:37:37;99189.31;;;0.86;66.31
62011;BME280;47967;51.756;10.174;2022-11-20T11:42:22;99182.66;;;0.82;66.53
62011;BME280;47967;51.756;10.174;2022-11-20T11:46:36;99186.06;;;0.92;66.29
62011;BME280;47967;51.756;10.174;2022-11-20T11:50:48;99189.16;;;1.06;66.69
62011;BME280;47967;51.756;10.174;2022-11-20T11:54:55;99183.31;;;1.02;66.77
62011;BME280;47967;51.756;10.174;2022-11-20T11:59:01;99183.56;;;0.91;66.69
62011;BME280;47967;51.756;10.174;2022-11-20T12:03:13;99180.22;;;1.07;67.18
62011;BME280;47967;51.756;10.174;2022-11-20T12:07:22;99182.78;;;0.99;67.55
62011;BME280;47967;51.756;10.174;2022-11-20T12:11:53;99189.41;;;0.94;67.16
62011;BME280;47967;51.756;10.174;2022-11-20T12:15:58;99178.69;;;1.04;67.11
62011;BME280;47967;51.756;10.174;2022-11-20T12:20:00;99166.56;;;1.02;66.78
62011;BME280;47967;51.756;10.174;2022-11-20T12:24:13;99166.69;;;1.18;67.29
62011;BME280;47967;51.756;10.174;2022-11-20T12:28:34;99167.34;;;1.38;66.65
62011;BME280;47967;51.756;10.174;2022-11-20T12:32:58;99167.69;;;1.43;66.37
62011;BME280;47967;51.756;10.174;2022-11-20T12:37:16;99165.81;;;1.36;66.54
62011;BME280;47967;51.756;10.174;2022-11-20T12:46:28;99156.28;;;1.51;66.30
62011;BME280;47967;51.756;10.174;2022-11-20T12:50:47;99150.75;;;1.44;66.39
62011;BME280;47967;51.756;10.174;2022-11-20T12:55:28;99154.34;;;1.62;66.15
62011;BME280;47967;51.756;10.174;2022-11-20T12:59:49;99144.53;;;1.62;66.18
62011;BME280;47967;51.756;10.174;2022-11-20T13:04:00;99137.88;;;1.58;65.91
62011;BME280;47967;51.756;10.174;2022-11-20T13:08:16;99135.06;;;1.59;66.18
62011;BME280;47967;51.756;10.174;2022-11-20T13:12:25;99129.63;;;1.69;65.90
62011;BME280;47967;51.756;10.174;2022-11-20T13:16:37;99128.97;;;1.75;65.39
62011;BME280;47967;51.756;10.174;2022-11-20T13:20:43;99143.94;;;1.76;65.73
62011;BME280;47967;51.756;10.174;2022-11-20T13:24:50;99136.31;;;1.73;65.71
62011;BME280;47967;51.756;10.174;2022-11-20T13:29:01;99139.38;;;1.60;65.88
62011;BME280;47967;51.756;10.174;2022-11-20T13:33:08;99136.78;;;1.69;65.59
62011;BME280;47967;51.756;10.174;2022-11-20T13:37:27;99140.59;;;1.66;65.80
62011;BME280;47967;51.756;10.174;2022-11-20T13:41:32;99138.91;;;1.65;65.60
62011;BME280;47967;51.756;10.174;2022-11-20T13:45:37;99126.97;;;1.69;65.90
62011;BME280;47967;51.756;10.174;2022-11-20T13:49:40;99122.63;;;1.68;66.13
62011;BME280;47967;51.756;10.174;2022-11-20T13:54:02;99120.81;;;1.69;66.56
62011;BME280;47967;51.756;10.174;2022-11-20T13:58:18;99119.06;;;1.51;66.63
62011;BME280;47967;51.756;10.174;2022-11-20T14:02:30;99111.56;;;1.47;66.39
62011;BME280;47967;51.756;10.174;2022-11-20T14:06:38;99118.88;;;1.44;66.85
62011;BME280;47967;51.756;10.174;2022-11-20T14:10:42;99121.78;;;1.33;67.04
62011;BME280;47967;51.756;10.174;2022-11-20T14:14:50;99117.47;;;1.32;67.17
62011;BME280;47967;51.756;10.174;2022-11-20T14:18:53;99106.84;;;1.32;67.53
62011;BME280;47967;51.756;10.174;2022-11-20T14:22:57;99108.13;;;1.28;67.03
62011;BME280;47967;51.756;10.174;2022-11-20T14:27:01;99102.69;;;1.38;67.02
62011;BME280;47967;51.756;10.174;2022-11-20T14:31:10;99096.84;;;1.34;67.29
62011;BME280;47967;51.756;10.174;2022-11-20T14:35:23;99098.06;;;1.40;67.16
62011;BME280;47967;51.756;10.174;2022-11-20T14:39:29;99101.97;;;1.27;67.71
62011;BME280;47967;51.756;10.174;2022-11-20T14:43:34;99091.13;;;1.21;67.73
62011;BME280;47967;51.756;10.174;2022-11-20T14:47:39;99088.44;;;1.13;67.64
62011;BME280;47967;51.756;10.174;2022-11-20T14:51:42;99085.91;;;1.03;68.39
62011;BME280;47967;51.756;10.174;2022-11-20T14:55:54;99083.94;;;0.87;68.82
62011;BME280;47967;51.756;10.174;2022-11-20T15:00:07;99077.16;;;0.66;69.41
62011;BME280;47967;51.756;10.174;2022-11-20T15:04:11;99079.97;;;0.46;69.91
62011;BME280;47967;51.756;10.174;2022-11-20T15:08:14;99064.94;;;0.37;70.33
62011;BME280;47967;51.756;10.174;2022-11-20T15:12:17;99065.53;;;0.13;71.14
62011;BME280;47967;51.756;10.174;2022-11-20T15:16:23;99049.75;;;-0.07;71.49
62011;BME280;47967;51.756;10.174;2022-11-20T15:20:28;99054.59;;;-0.20;72.18
62011;BME280;47967;51.756;10.174;2022-11-20T15:24:32;99051.72;;;-0.37;71.92
62011;BME280;47967;51.756;10.174;2022-11-20T15:28:36;99054.03;;;-0.52;72.52
62011;BME280;47967;51.756;10.174;2022-11-20T15:32:43;99047.81;;;-0.60;73.36
62011;BME280;47967;51.756;10.174;2022-11-20T15:36:47;99040.69;;;-0.60;74.32
62011;BME280;47967;51.756;10.174;2022-11-20T15:40:50;99032.19;;;-0.54;74.06
62011;BME280;47967;51.756;10.174;2022-11-20T15:44:52;99028.28;;;-0.59;74.14
62011;BME280;47967;51.756;10.174;2022-11-20T15:48:57;99020.63;;;-0.62;74.30
62011;BME280;47967;51.756;10.174;2022-11-20T15:53:02;99021.09;;;-0.67;73.90
62011;BME280;47967;51.756;10.174;2022-11-20T15:57:04;99021.25;;;-0.78;73.53
62011;BME280;47967;51.756;10.174;2022-11-20T16:01:10;99023.78;;;-0.87;74.11
62011;BME280;47967;51.756;10.174;2022-11-20T16:05:14;99014.19;;;-0.88;73.64
62011;BME280;47967;51.756;10.174;2022-11-20T16:09:17;99016.69;;;-0.86;73.31
62011;BME280;47967;51.756;10.174;2022-11-20T16:13:20;99010.44;;;-0.85;73.25
62011;BME280;47967;51.756;10.174;2022-11-20T16:17:41;99004.25;;;-0.76;72.80
62011;BME280;47967;51.756;10.174;2022-11-20T16:21:48;98990.13;;;-0.67;73.23
62011;BME280;47967;51.756;10.174;2022-11-20T16:25:50;99002.03;;;-0.53;72.57
62011;BME280;47967;51.756;10.174;2022-11-20T16:29:53;98999.03;;;-0.40;72.85
62011;BME280;47967;51.756;10.174;2022-11-20T16:33:58;98993.00;;;-0.32;72.37
62011;BME280;47967;51.756;10.174;2022-11-20T16:38:02;98992.72;;;-0.29;72.46
62011;BME280;47967;51.756;10.174;2022-11-20T16:42:05;98998.09;;;-0.21;72.51
62011;BME280;47967;51.756;10.174;2022-11-20T16:46:08;98990.53;;;-0.15;72.21
62011;BME280;47967;51.756;10.174;2022-11-20T16:50:10;98986.34;;;-0.18;72.25
62011;BME280;47967;51.756;10.174;2022-11-20T16:54:14;98985.06;;;-0.14;71.83
62011;BME280;47967;51.756;10.174;2022-11-20T16:58:21;98978.25;;;-0.17;72.18
62011;BME280;47967;51.756;10.174;2022-11-20T17:02:24;98970.66;;;-0.29;73.22
62011;BME280;47967;51.756;10.174;2022-11-20T17:06:29;98973.47;;;-0.31;73.35
62011;BME280;47967;51.756;10.174;2022-11-20T17:10:33;98973.03;;;-0.26;73.56
62011;BME280;47967;51.756;10.174;2022-11-20T17:14:36;98967.88;;;-0.28;73.66
62011;BME280;47967;51.756;10.174;2022-11-20T17:18:39;98958.72;;;-0.15;73.98
62011;BME280;47967;51.756;10.174;2022-11-20T17:22:42;98956.28;;;0.09;73.03
62011;BME280;47967;51.756;10.174;2022-11-20T17:26:47;98950.59;;;0.22;71.77
62011;BME280;47967;51.756;10.174;2022-11-20T17:30:50;98944.88;;;0.17;71.50
62011;BME280;47967;51.756;10.174;2022-11-20T17:34:52;98935.19;;;0.26;72.09
62011;BME280;47967;51.756;10.174;2022-11-20T17:38:55;98928.56;;;0.48;71.75
62011;BME280;47967;51.756;10.174;2022-11-20T17:42:59;98932.97;;;0.66;71.09
62011;BME280;47967;51.756;10.174;2022-11-20T17:47:03;98922.84;;;0.69;70.69
62011;BME280;47967;51.756;10.174;2022-11-20T17:51:10;98917.91;;;0.74;70.41
62011;BME280;47967;51.756;10.174;2022-11-20T17:55:14;98914.16;;;0.85;70.45
62011;BME280;47967;51.756;10.174;2022-11-20T17:59:18;98904.38;;;0.94;69.99
62011;BME280;47967;51.756;10.174;2022-11-20T18:03:26;98907.72;;;0.96;69.42
62011;BME280;47967;51.756;10.174;2022-11-20T18:07:29;98898.47;;;1.00;69.15
62011;BME280;47967;51.756;10.174;2022-11-20T18:11:33;98886.31;;;0.98;69.40
62011;BME280;47967;51.756;10.174;2022-11-20T18:15:38;98878.22;;;1.07;69.62
62011;BME280;47967;51.756;10.174;2022-11-20T18:19:44;98867.25;;;1.02;69.66
62011;BME280;47967;51.756;10.174;2022-11-20T18:24:08;98857.31;;;1.04;70.15
62011;BME280;47967;51.756;10.174;2022-11-20T18:28:12;98865.09;;;1.06;70.26
62011;BME280;47967;51.756;10.174;2022-11-20T18:32:20;98853.69;;;1.14;69.64
62011;BME280;47967;51.756;10.174;2022-11-20T18:36:24;98858.19;;;1.30;69.52
62011;BME280;47967;51.756;10.174;2022-11-20T18:40:27;98843.25;;;1.28;69.64
62011;BME280;47967;51.756;10.174;2022-11-20T18:44:34;98828.16;;;1.37;69.98
62011;BME280;47967;51.756;10.174;2022-11-20T18:48:53;98825.16;;;1.32;70.98
62011;BME280;47967;51.756;10.174;2022-11-20T18:52:58;98815.84;;;1.20;71.63
62011;BME280;47967;51.756;10.174;2022-11-20T18:57:16;98824.31;;;1.32;70.75
62011;BME280;47967;51.756;10.174;2022-11-20T19:01:19;98814.53;;;1.40;70.20
62011;BME280;47967;51.756;10.174;2022-11-20T19:05:23;98812.72;;;1.49;69.46
62011;BME280;47967;51.756;10.174;2022-11-20T19:09:26;98796.78;;;1.49;69.97
62011;BME280;47967;51.756;10.174;2022-11-20T19:13:31;98791.94;;;1.53;69.83
62011;BME280;47967;51.756;10.174;2022-11-20T19:17:34;98782.81;;;1.55;70.18
62011;BME280;47967;51.756;10.174;2022-11-20T19:21:39;98785.47;;;1.64;70.54
62011;BME280;47967;51.756;10.174;2022-11-20T19:25:57;98790.44;;;1.58;69.98
62011;BME280;47967;51.756;10.174;2022-11-20T19:30:02;98781.97;;;1.63;69.80
62011;BME280;47967;51.756;10.174;2022-11-20T19:34:05;98775.16;;;1.69;70.20
62011;BME280;47967;51.756;10.174;2022-11-20T19:38:10;98779.47;;;1.78;69.88
62011;BME280;47967;51.756;10.174;2022-11-20T19:42:15;98776.47;;;1.73;70.19
62011;BME280;47967;51.756;10.174;2022-11-20T19:46:17;98774.31;;;1.68;70.24
62011;BME280;47967;51.756;10.174;2022-11-20T19:50:22;98767.81;;;1.71;70.07
62011;BME280;47967;51.756;10.174;2022-11-20T19:54:26;98773.81;;;1.73;70.45
62011;BME280;47967;51.756;10.174;2022-11-20T19:58:29;98773.81;;;1.89;70.46
62011;BME280;47967;51.756;10.174;2022-11-20T20:02:32;98782.28;;;1.85;70.27
62011;BME280;47967;51.756;10.174;2022-11-20T20:06:35;98760.69;;;1.71;70.96
62011;BME280;47967;51.756;10.174;2022-11-20T20:10:40;98761.03;;;1.68;71.72
62011;BME280;47967;51.756;10.174;2022-11-20T20:14:59;98752.06;;;1.69;72.13
62011;BME280;47967;51.756;10.174;2022-11-20T20:19:31;98744.06;;;1.78;72.33
62011;BME280;47967;51.756;10.174;2022-11-20T20:23:33;98731.75;;;1.85;72.35
62011;BME280;47967;51.756;10.174;2022-11-20T20:32:55;98711.47;;;1.92;72.89
62011;BME280;47967;51.756;10.174;2022-11-20T20:37:15;98707.31;;;1.89;72.99
62011;BME280;47967;51.756;10.174;2022-11-20T20:41:41;98697.19;;;1.85;73.49
62011;BME280;47967;51.756;10.174;2022-11-20T20:45:45;98694.03;;;1.89;74.00
62011;BME280;47967;51.756;10.174;2022-11-20T20:49:50;98685.19;;;1.89;73.73
62011;BME280;47967;51.756;10.174;2022-11-20T20:53:55;98673.38;;;1.91;73.77
62011;BME280;47967;51.756;10.174;2022-11-20T20:57:58;98665.56;;;1.98;73.84
62011;BME280;47967;51.756;10.174;2022-11-20T21:02:05;98658.25;;;2.00;73.45
62011;BME280;47967;51.756;10.174;2022-11-20T21:06:11;98645.44;;;2.04;73.77
62011;BME280;47967;51.756;10.174;2022-11-20T21:10:14;98641.44;;;2.00;73.27
62011;BME280;47967;51.756;10.174;2022-11-20T21:14:23;98632.97;;;1.96;73.36
62011;BME280;47967;51.756;10.174;2022-11-20T21:18:27;98617.38;;;1.93;73.30
62011;BME280;47967;51.756;10.174;2022-11-20T21:22:31;98612.75;;;1.87;73.97
62011;BME280;47967;51.756;10.174;2022-11-20T21:26:37;98596.47;;;1.82;73.98
62011;BME280;47967;51.756;10.174;2022-11-20T21:30:39;98599.19;;;1.73;74.27
62011;BME280;47967;51.756;10.174;2022-11-20T21:34:42;98582.06;;;1.68;74.62
62011;BME280;47967;51.756;10.174;2022-11-20T21:38:47;98578.44;;;1.60;74.77
62011;BME280;47967;51.756;10.174;2022-11-20T21:42:49;98565.69;;;1.48;75.34
62011;BME280;47967;51.756;10.174;2022-11-20T21:46:54;98559.72;;;1.46;75.95
62011;BME280;47967;51.756;10.174;2022-11-20T21:51:00;98553.84;;;1.58;76.12
62011;BME280;47967;51.756;10.174;2022-11-20T21:55:09;98548.97;;;1.79;75.34
62011;BME280;47967;51.756;10.174;2022-11-20T21:59:11;98540.63;;;1.82;75.04
